createdAt,value
2019-04-20T00:02:17.733Z,94.00
2019-04-20T00:04:45.204Z,93.80
2019-04-20T00:07:14.216Z,93.50
2019-04-20T00:09:52.435Z,93.50
2019-04-20T00:12:20.261Z,93.20
2019-04-20T00:14:44.283Z,92.90
2019-04-20T00:17:13.725Z,92.80
2019-04-20T00:19:47.790Z,92.60
2019-04-20T00:22:15.650Z,92.50
2019-04-20T00:25:11.870Z,92.40
2019-04-20T00:27:59.627Z,92.20
2019-04-20T00:30:32.451Z,91.90
2019-04-20T00:32:53.241Z,91.90
2019-04-20T00:35:10.441Z,91.90
2019-04-20T00:37:40.206Z,92.10
2019-04-20T00:40:09.898Z,92.10
2019-04-20T00:42:45.926Z,92.20
2019-04-20T00:45:19.188Z,92.10
2019-04-20T00:47:51.256Z,92.10
2019-04-20T00:50:28.388Z,92.10
2019-04-20T00:52:55.774Z,92.00
2019-04-20T00:55:14.855Z,92.00
2019-04-20T00:57:51.401Z,92.20
2019-04-20T01:00:31.546Z,92.20
2019-04-20T01:02:55.557Z,92.20
2019-04-20T01:05:43.783Z,92.20
2019-04-20T01:08:01.972Z,92.00
2019-04-20T01:10:37.094Z,92.10
2019-04-20T01:13:06.845Z,92.00
2019-04-20T01:15:37.543Z,92.10
2019-04-20T01:18:00.488Z,92.10
2019-04-20T01:20:29.372Z,92.20
2019-04-20T01:23:06.162Z,92.10
2019-04-20T01:25:33.791Z,92.00
2019-04-20T01:28:13.077Z,92.20
2019-04-20T01:30:36.238Z,92.20
2019-04-20T01:33:18.832Z,92.30
2019-04-20T01:35:48.894Z,92.20
2019-04-20T01:38:21.261Z,92.20
2019-04-20T01:40:33.625Z,92.00
2019-04-20T01:43:03.721Z,91.90
2019-04-20T01:45:37.281Z,91.90
2019-04-20T01:48:04.788Z,91.90
2019-04-20T01:50:37.947Z,91.90
2019-04-20T01:53:12.425Z,91.70
2019-04-20T01:55:50.625Z,91.50
2019-04-20T01:58:33.662Z,91.50
2019-04-20T02:00:46.921Z,91.50
2019-04-20T02:03:38.423Z,91.30
2019-04-20T02:06:09.990Z,91.10
2019-04-20T02:08:37.730Z,91.10
2019-04-20T02:11:08.129Z,91.00
2019-04-20T02:13:44.381Z,91.10
2019-04-20T02:16:15.805Z,91.20
2019-04-20T02:18:50.831Z,91.40
2019-04-20T02:21:24.177Z,91.50
2019-04-20T02:23:48.021Z,91.70
2019-04-20T02:26:09.747Z,91.80
2019-04-20T02:29:05.676Z,92.00
2019-04-20T02:32:08.504Z,92.20
2019-04-20T02:34:18.295Z,92.80
2019-04-20T02:37:09.562Z,93.20
2019-04-20T02:42:10.165Z,93.70
2019-04-20T02:57:10.247Z,94.50
2019-04-20T03:02:00.336Z,94.90
2019-04-20T03:04:20.294Z,95.10
2019-04-20T03:06:55.023Z,95.10
2019-04-20T03:09:33.111Z,95.20
2019-04-20T03:12:04.803Z,95.30
2019-04-20T03:14:29.246Z,95.30
2019-04-20T03:17:08.179Z,95.40
2019-04-20T03:19:28.814Z,95.30
2019-04-20T03:22:09.138Z,95.30
2019-04-20T03:24:38.901Z,95.30
2019-04-20T03:26:59.583Z,95.30
2019-04-20T03:29:40.975Z,95.30
2019-04-20T03:35:01.178Z,95.30
2019-04-20T03:37:13.126Z,95.10
2019-04-20T03:39:39.007Z,95.10
2019-04-20T03:41:56.696Z,95.00
2019-04-20T03:44:26.421Z,94.90
2019-04-20T03:47:00.871Z,94.90
2019-04-20T03:49:49.032Z,94.70
2019-04-20T03:52:27.460Z,94.30
2019-04-20T03:54:54.340Z,94.20
2019-04-20T03:57:57.165Z,93.90
2019-04-20T04:00:30.465Z,93.70
2019-04-20T04:03:16.579Z,93.80
2019-04-20T04:05:31.958Z,93.40
2019-04-20T04:08:01.233Z,92.40
2019-04-20T04:10:30.494Z,91.60
2019-04-20T04:13:18.966Z,90.50
2019-04-20T04:15:55.699Z,87.90
2019-04-20T04:18:28.191Z,85.60
2019-04-20T04:20:59.073Z,84.80
2019-04-20T04:23:38.051Z,83.90
2019-04-20T04:26:08.637Z,83.50
2019-04-20T04:28:40.720Z,82.60
2019-04-20T04:31:16.578Z,82.60
2019-04-20T04:36:10.529Z,83.40
2019-04-20T04:38:47.515Z,81.30
2019-04-20T04:41:18.268Z,80.30
2019-04-20T04:43:44.410Z,78.00
2019-04-20T04:45:57.460Z,76.50
2019-04-20T04:48:32.107Z,78.30
2019-04-20T04:51:03.397Z,80.30
2019-04-20T04:53:41.962Z,80.60
2019-04-20T04:56:05.835Z,80.50
2019-04-20T04:58:29.911Z,79.90
2019-04-20T05:01:05.653Z,80.20
2019-04-20T05:03:44.987Z,82.20
2019-04-20T05:06:18.642Z,84.20
2019-04-20T05:08:38.629Z,85.40
2019-04-20T05:11:04.723Z,85.60
2019-04-20T05:13:42.806Z,85.30
2019-04-20T05:16:19.195Z,85.60
2019-04-20T05:18:59.271Z,83.90
2019-04-20T05:21:25.322Z,82.90
2019-04-20T05:23:55.435Z,79.60
2019-04-20T05:26:30.074Z,75.70
2019-04-20T05:28:53.564Z,71.90
2019-04-20T05:31:14.992Z,70.20
2019-04-20T05:34:11.385Z,70.30
2019-04-20T05:36:37.433Z,71.40
2019-04-20T05:39:16.107Z,72.70
2019-04-20T05:41:32.859Z,70.40
2019-04-20T05:44:04.670Z,71.20
2019-04-20T05:46:37.463Z,71.50
2019-04-20T05:49:11.685Z,69.40
2019-04-20T05:51:43.304Z,67.20
2019-04-20T05:54:13.780Z,65.50
2019-04-20T05:56:50.184Z,61.30
2019-04-20T05:59:11.744Z,63.40
2019-04-20T06:01:48.792Z,59.80
2019-04-20T06:04:08.457Z,60.00
2019-04-20T06:06:47.680Z,58.30
2019-04-20T06:09:16.601Z,57.70
2019-04-20T06:11:56.086Z,55.30
2019-04-20T06:14:19.398Z,57.10
2019-04-20T06:17:11.367Z,56.20
2019-04-20T06:19:39.528Z,56.30
2019-04-20T06:22:31.444Z,56.40
2019-04-20T06:24:57.256Z,56.20
2019-04-20T06:27:08.288Z,54.10
2019-04-20T06:29:42.706Z,52.50
2019-04-20T06:32:23.374Z,55.90
2019-04-20T06:34:41.647Z,56.20
2019-04-20T06:37:10.193Z,54.90
2019-04-20T06:39:46.550Z,57.70
2019-04-20T06:42:17.598Z,55.30
2019-04-20T06:44:46.349Z,55.40
2019-04-20T06:47:22.788Z,52.90
2019-04-20T06:49:53.704Z,53.90
2019-04-20T06:52:26.164Z,54.30
2019-04-20T07:00:17.194Z,53.10
2019-04-20T07:03:01.835Z,53.80
2019-04-20T07:05:19.085Z,54.30
2019-04-20T07:12:48.066Z,53.90
2019-04-20T07:15:16.316Z,53.30
2019-04-20T07:18:13.900Z,53.20
2019-04-20T07:20:45.995Z,54.70
2019-04-20T07:23:26.925Z,53.80
2019-04-20T07:25:42.827Z,51.90
2019-04-20T07:28:11.012Z,47.70
2019-04-20T07:30:46.463Z,45.40
2019-04-20T07:33:25.686Z,46.20
2019-04-20T07:35:53.005Z,44.20
2019-04-20T07:38:32.942Z,44.50
2019-04-20T07:41:12.932Z,45.50
2019-04-20T07:43:54.013Z,44.30
2019-04-20T07:46:20.845Z,42.00
2019-04-20T07:48:50.617Z,43.10
2019-04-20T07:51:11.472Z,43.40
2019-04-20T07:53:50.211Z,43.80
2019-04-20T07:56:23.557Z,45.60
2019-04-20T07:58:41.120Z,44.80
2019-04-20T08:01:45.169Z,44.10
2019-04-20T08:04:17.408Z,43.90
2019-04-20T08:06:45.437Z,46.90
2019-04-20T08:09:20.748Z,45.70
2019-04-20T08:12:07.444Z,47.80
2019-04-20T08:14:35.694Z,46.50
2019-04-20T08:17:13.974Z,45.40
2019-04-20T08:19:28.650Z,43.50
2019-04-20T08:22:02.598Z,46.00
2019-04-20T08:24:30.313Z,47.10
2019-04-20T08:26:50.221Z,44.70
2019-04-20T08:29:33.169Z,46.10
2019-04-20T08:32:15.527Z,44.60
2019-04-20T08:34:47.499Z,44.30
2019-04-20T08:37:11.093Z,45.90
2019-04-20T08:42:16.303Z,45.60
2019-04-20T08:47:27.896Z,44.90
2019-04-20T08:53:03.773Z,45.60
2019-04-20T08:55:10.555Z,47.90
2019-04-20T08:57:25.071Z,48.40
2019-04-20T08:59:54.412Z,50.30
2019-04-20T09:02:23.937Z,47.60
2019-04-20T09:05:00.601Z,47.80
2019-04-20T09:07:27.001Z,45.00
2019-04-20T09:10:21.312Z,45.80
2019-04-20T09:12:39.506Z,45.90
2019-04-20T09:14:55.156Z,48.00
2019-04-20T09:17:32.572Z,45.80
2019-04-20T09:20:04.707Z,49.30
2019-04-20T09:22:46.699Z,48.10
2019-04-20T09:25:46.867Z,47.00
2019-04-20T09:27:45.923Z,48.60
2019-04-20T09:30:24.362Z,50.20
2019-04-20T09:33:05.908Z,50.00
2019-04-20T09:35:34.069Z,50.50
2019-04-20T09:38:06.064Z,49.60
2019-04-20T09:40:37.565Z,50.80
2019-04-20T09:42:52.662Z,49.50
2019-04-20T09:45:30.994Z,50.80
2019-04-20T09:47:56.618Z,51.30
2019-04-20T09:50:44.942Z,50.40
2019-04-20T09:53:08.976Z,50.20
2019-04-20T09:55:38.235Z,52.00
2019-04-20T09:58:08.222Z,53.10
2019-04-20T10:00:45.877Z,53.90
2019-04-20T10:03:00.328Z,55.70
2019-04-20T10:05:29.553Z,59.00
2019-04-20T10:08:01.190Z,60.50
2019-04-20T10:10:38.059Z,62.60
2019-04-20T10:13:00.563Z,65.40
2019-04-20T10:15:31.069Z,65.30
2019-04-20T10:18:01.671Z,65.70
2019-04-20T10:20:33.600Z,67.80
2019-04-20T10:23:02.577Z,67.90
2019-04-20T10:25:32.797Z,68.40
2019-04-20T10:28:03.298Z,70.10
2019-04-20T10:30:38.769Z,72.60
2019-04-20T10:33:07.861Z,73.30
2019-04-20T10:35:36.745Z,72.20
2019-04-20T10:38:07.557Z,71.60
2019-04-20T10:40:50.277Z,71.60
2019-04-20T10:43:08.054Z,72.90
2019-04-20T10:45:37.026Z,73.30
2019-04-20T10:48:05.906Z,74.00
2019-04-20T10:50:34.820Z,74.60
2019-04-20T10:53:03.751Z,74.60
2019-04-20T10:55:33.534Z,75.00
2019-04-20T10:58:03.729Z,75.20
2019-04-20T11:00:41.938Z,73.20
2019-04-20T11:03:13.552Z,67.80
2019-04-20T11:05:44.650Z,69.00
2019-04-20T11:08:16.841Z,68.60
2019-04-20T11:10:55.565Z,68.50
2019-04-20T11:13:17.202Z,68.30
2019-04-20T11:15:46.383Z,66.90
2019-04-20T11:18:15.531Z,67.60
2019-04-20T11:20:46.649Z,66.80
2019-04-20T11:23:16.109Z,65.90
2019-04-20T11:25:46.304Z,66.30
2019-04-20T11:28:16.472Z,66.50
2019-04-20T11:30:46.065Z,66.10
2019-04-20T11:33:16.141Z,65.40
2019-04-20T11:35:46.484Z,64.40
2019-04-20T11:38:17.277Z,64.80
2019-04-20T11:40:48.167Z,64.80
2019-04-20T11:43:17.771Z,64.20
2019-04-20T11:45:46.786Z,63.70
2019-04-20T11:48:15.895Z,64.00
2019-04-20T11:50:45.599Z,64.40
2019-04-20T11:53:15.302Z,64.00
2019-04-20T11:55:44.607Z,64.50
2019-04-20T11:58:14.232Z,65.70
2019-04-20T12:00:58.625Z,65.70
2019-04-20T12:03:31.609Z,66.70
2019-04-20T12:05:57.884Z,66.40
2019-04-20T12:08:27.217Z,65.50
2019-04-20T12:10:59.523Z,67.30
2019-04-20T12:13:26.935Z,66.60
2019-04-20T12:15:57.836Z,67.30
2019-04-20T12:18:27.607Z,65.40
2019-04-20T12:20:56.762Z,65.50
2019-04-20T12:23:26.468Z,64.60
2019-04-20T12:25:56.408Z,64.30
2019-04-20T12:28:25.429Z,64.00
2019-04-20T12:30:55.953Z,64.70
2019-04-20T12:33:26.294Z,65.00
2019-04-20T12:35:56.325Z,64.00
2019-04-20T12:38:25.305Z,64.00
2019-04-20T12:40:55.579Z,65.10
2019-04-20T12:43:25.525Z,65.10
2019-04-20T12:45:55.736Z,64.60
2019-04-20T12:48:25.893Z,64.50
2019-04-20T12:50:55.429Z,64.60
2019-04-20T12:53:24.493Z,63.70
2019-04-20T12:55:54.731Z,64.80
2019-04-20T12:58:23.788Z,65.40
2019-04-20T13:00:54.337Z,65.20
2019-04-20T13:03:23.551Z,65.80
2019-04-20T13:05:54.092Z,66.70
2019-04-20T13:08:33.293Z,66.70
2019-04-20T13:10:56.013Z,66.60
2019-04-20T13:13:41.695Z,66.30
2019-04-20T13:16:22.555Z,65.10
2019-04-20T13:18:57.133Z,65.70
2019-04-20T13:21:27.094Z,65.50
2019-04-20T13:23:56.591Z,64.70
2019-04-20T13:26:26.888Z,66.20
2019-04-20T13:28:57.063Z,66.10
2019-04-20T13:31:26.179Z,66.00
2019-04-20T13:33:59.135Z,66.40
2019-04-20T13:36:28.480Z,67.20
2019-04-20T13:38:59.661Z,67.10
2019-04-20T13:41:29.814Z,67.40
2019-04-20T13:44:01.274Z,66.90
2019-04-20T13:46:29.502Z,66.80
2019-04-20T13:48:58.292Z,67.20
2019-04-20T13:51:28.605Z,67.00
2019-04-20T13:53:57.603Z,67.40
2019-04-20T13:56:28.012Z,67.70
2019-04-20T13:58:58.554Z,67.50
2019-04-20T14:01:47.469Z,67.20
2019-04-20T14:04:19.166Z,66.60
2019-04-20T14:06:48.463Z,67.60
2019-04-20T14:09:17.350Z,67.60
2019-04-20T14:11:47.394Z,67.30
2019-04-20T14:14:17.192Z,67.60
2019-04-20T14:16:47.294Z,67.60
2019-04-20T14:19:16.714Z,67.40
2019-04-20T14:21:46.165Z,67.40
2019-04-20T14:24:15.155Z,66.60
2019-04-20T14:26:46.844Z,66.50
2019-04-20T14:29:16.857Z,66.90
2019-04-20T14:31:46.005Z,67.20
2019-04-20T14:34:15.158Z,66.90
2019-04-20T14:36:46.780Z,66.70
2019-04-20T14:39:16.186Z,67.40
2019-04-20T14:41:46.416Z,67.40
2019-04-20T14:44:16.165Z,67.70
2019-04-20T14:46:45.529Z,67.20
2019-04-20T14:49:14.750Z,68.00
2019-04-20T14:51:47.715Z,68.60
2019-04-20T14:54:17.131Z,68.30
2019-04-20T14:56:47.229Z,67.70
2019-04-20T14:59:25.229Z,67.80
2019-04-20T15:01:58.733Z,67.00
2019-04-20T15:04:29.061Z,67.70
2019-04-20T15:06:58.448Z,67.40
2019-04-20T15:09:28.673Z,67.90
2019-04-20T15:11:58.934Z,68.50
2019-04-20T15:14:29.043Z,68.60
2019-04-20T15:16:58.407Z,67.80
2019-04-20T15:19:35.790Z,68.20
2019-04-20T15:22:07.515Z,68.80
2019-04-20T15:24:37.594Z,69.10
2019-04-20T15:27:06.813Z,68.70
2019-04-20T15:29:36.051Z,68.40
2019-04-20T15:32:06.056Z,68.70
2019-04-20T15:34:35.095Z,68.50
2019-04-20T15:37:05.899Z,68.60
2019-04-20T15:39:34.965Z,68.70
2019-04-20T15:42:03.781Z,69.10
2019-04-20T15:44:33.423Z,68.30
2019-04-20T15:47:03.667Z,67.90
2019-04-20T15:49:33.788Z,68.70
2019-04-20T15:52:03.916Z,69.50
2019-04-20T15:54:33.888Z,69.90
2019-04-20T15:57:09.787Z,70.20
2019-04-20T15:59:34.660Z,70.50
2019-04-20T16:02:09.259Z,71.70
2019-04-20T16:04:58.370Z,71.80
2019-04-20T16:07:32.973Z,72.40
2019-04-20T16:10:01.097Z,71.90
2019-04-20T16:12:31.082Z,72.10
2019-04-20T16:14:59.983Z,72.80
2019-04-20T16:17:33.666Z,73.20
2019-04-20T16:20:08.012Z,73.50
2019-04-20T16:22:31.685Z,74.00
2019-04-20T16:25:03.468Z,74.90
2019-04-20T16:27:37.909Z,75.30
2019-04-20T16:30:07.699Z,76.20
2019-04-20T16:32:36.660Z,75.70
2019-04-20T16:35:08.588Z,75.20
2019-04-20T16:37:38.384Z,75.50
2019-04-20T16:40:08.498Z,76.20
2019-04-20T16:42:40.508Z,76.20
2019-04-20T16:45:11.611Z,76.30
2019-04-20T16:47:42.009Z,76.40
2019-04-20T16:50:11.239Z,76.30
2019-04-20T16:52:43.150Z,76.90
2019-04-20T16:55:13.125Z,77.10
2019-04-20T16:57:44.639Z,77.80
2019-04-20T17:00:13.680Z,78.30
2019-04-20T17:02:42.745Z,78.30
2019-04-20T17:05:13.397Z,78.50
2019-04-20T17:07:44.932Z,79.00
2019-04-20T17:10:18.333Z,79.30
2019-04-20T17:12:48.039Z,79.40
2019-04-20T17:15:17.749Z,79.00
2019-04-20T17:17:49.620Z,79.40
2019-04-20T17:20:17.904Z,79.10
2019-04-20T17:22:46.776Z,79.80
2019-04-20T17:25:16.268Z,78.80
2019-04-20T17:27:47.111Z,79.60
2019-04-20T17:30:26.677Z,79.80
2019-04-20T17:33:00.029Z,80.00
2019-04-20T17:35:41.130Z,80.00
2019-04-20T17:38:00.561Z,80.20
2019-04-20T17:40:46.150Z,80.20
2019-04-20T17:43:09.305Z,79.70
2019-04-20T17:45:41.591Z,80.00
2019-04-20T17:48:17.777Z,80.10
2019-04-20T17:50:55.674Z,80.20
2019-04-20T17:53:23.014Z,80.00
2019-04-20T17:55:50.024Z,80.20
2019-04-20T17:58:27.806Z,79.70
2019-04-20T18:00:58.579Z,79.90
2019-04-20T18:04:03.564Z,79.50
2019-04-20T18:06:16.098Z,79.70
2019-04-20T18:08:46.903Z,79.80
2019-04-20T18:11:07.690Z,80.00
2019-04-20T18:13:33.978Z,79.20
2019-04-20T18:16:22.236Z,79.40
2019-04-20T18:19:01.502Z,79.40
2019-04-20T18:21:26.680Z,79.40
2019-04-20T18:23:56.249Z,79.90
2019-04-20T18:26:43.219Z,80.10
2019-04-20T18:29:16.574Z,80.60
2019-04-20T18:31:29.140Z,80.60
2019-04-20T18:34:00.701Z,81.00
2019-04-20T18:36:35.860Z,81.50
2019-04-20T18:39:06.251Z,81.80
2019-04-20T18:41:38.472Z,82.10
2019-04-20T18:44:02.627Z,82.40
2019-04-20T18:46:54.525Z,82.70
2019-04-20T18:49:18.199Z,82.60
2019-04-20T18:51:33.437Z,82.70
2019-04-20T18:54:08.290Z,83.00
2019-04-20T18:56:39.673Z,83.10
2019-04-20T18:59:03.525Z,83.00
2019-04-20T19:01:34.889Z,83.10
2019-04-20T19:04:03.738Z,83.40
2019-04-20T19:06:33.963Z,83.40
2019-04-20T19:09:04.853Z,83.90
2019-04-20T19:11:37.520Z,84.20
2019-04-20T19:14:16.374Z,84.70
2019-04-20T19:16:53.887Z,85.20
2019-04-20T19:19:24.513Z,85.50
2019-04-20T19:21:43.795Z,85.90
2019-04-20T19:24:16.254Z,86.30
2019-04-20T19:26:45.089Z,86.70
2019-04-20T19:29:22.158Z,87.00
2019-04-20T19:31:59.758Z,87.10
2019-04-20T19:34:30.534Z,87.20
2019-04-20T19:37:00.072Z,87.10
2019-04-20T19:39:29.908Z,87.40
2019-04-20T19:41:54.043Z,87.30
2019-04-20T19:44:28.766Z,87.60
2019-04-20T19:47:10.566Z,87.60
2019-04-20T19:49:28.964Z,87.90
2019-04-20T19:52:20.972Z,88.30
2019-04-20T19:54:40.070Z,89.20
2019-04-20T19:57:04.926Z,89.40
2019-04-20T19:59:29.570Z,89.30
2019-04-20T20:01:51.589Z,89.40
2019-04-20T20:04:21.715Z,89.50
2019-04-20T20:06:56.525Z,89.80
2019-04-20T20:09:21.867Z,89.90
2019-04-20T20:11:51.508Z,90.10
2019-04-20T20:14:30.604Z,90.10
2019-04-20T20:17:08.468Z,90.10
2019-04-20T20:19:38.105Z,90.10
2019-04-20T20:22:06.824Z,89.60
2019-04-20T20:24:23.252Z,88.70
2019-04-20T20:26:58.511Z,88.70
2019-04-20T20:29:30.528Z,89.10
2019-04-20T20:32:05.152Z,89.30
2019-04-20T20:34:33.316Z,89.00
2019-04-20T20:37:00.456Z,89.10
2019-04-20T20:39:32.593Z,89.00
2019-04-20T20:42:10.817Z,89.50
2019-04-20T20:44:44.073Z,89.80
2019-04-20T20:47:33.893Z,89.20
2019-04-20T20:49:57.734Z,89.20
2019-04-20T20:52:24.415Z,89.00
2019-04-20T20:54:46.033Z,87.90
2019-04-20T20:57:12.707Z,88.10
2019-04-20T20:59:42.698Z,88.00
2019-04-20T21:02:12.413Z,87.20
2019-04-20T21:04:37.531Z,86.00
2019-04-20T21:07:06.718Z,85.80
2019-04-20T21:09:35.774Z,85.50
2019-04-20T21:12:09.153Z,85.50
2019-04-20T21:14:38.631Z,85.60
2019-04-20T21:17:13.191Z,85.30
2019-04-20T21:19:56.258Z,84.30
2019-04-20T21:22:15.136Z,84.30
2019-04-20T21:24:47.023Z,85.10
2019-04-20T21:27:19.828Z,85.60
2019-04-20T21:29:51.392Z,86.50
2019-04-20T21:32:19.473Z,86.40
2019-04-20T21:34:53.588Z,88.60
2019-04-20T21:37:22.345Z,88.50
2019-04-20T21:39:53.906Z,87.70
2019-04-20T21:42:21.642Z,85.00
2019-04-20T21:44:51.955Z,85.00
2019-04-20T21:47:24.747Z,82.40
2019-04-20T21:50:04.716Z,82.40
2019-04-20T21:52:26.726Z,83.00
2019-04-20T21:54:52.072Z,83.30
2019-04-20T21:57:22.070Z,83.60
2019-04-20T21:59:53.952Z,83.60
2019-04-20T22:02:29.726Z,83.60
2019-04-20T22:04:53.409Z,82.70
2019-04-20T22:07:22.780Z,82.40
2019-04-20T22:09:54.713Z,81.80
2019-04-20T22:12:23.488Z,79.40
2019-04-20T22:14:59.011Z,78.10
2019-04-20T22:17:28.585Z,78.00
2019-04-20T22:20:06.952Z,76.90
2019-04-20T22:22:42.769Z,77.60
2019-04-20T22:25:08.213Z,78.30
2019-04-20T22:27:30.034Z,80.50
2019-04-20T22:29:56.205Z,82.00
2019-04-20T22:32:28.007Z,82.20
2019-04-20T22:35:03.055Z,79.60
2019-04-20T22:37:30.486Z,81.30
2019-04-20T22:40:01.115Z,79.50
2019-04-20T22:42:37.830Z,83.10
2019-04-20T22:45:05.104Z,84.90
2019-04-20T22:47:33.709Z,82.00
2019-04-20T22:50:23.715Z,84.20
2019-04-20T22:52:47.097Z,86.60
2019-04-20T22:55:30.059Z,86.50
2019-04-20T22:57:48.399Z,87.40
2019-04-20T23:00:10.998Z,85.50
2019-04-20T23:02:36.519Z,80.20
2019-04-20T23:05:06.902Z,81.50
2019-04-20T23:07:36.912Z,82.30
2019-04-20T23:10:08.856Z,84.50
2019-04-20T23:12:40.049Z,83.80
2019-04-20T23:15:10.245Z,88.00
2019-04-20T23:17:43.366Z,88.40
2019-04-20T23:20:19.783Z,89.20
2019-04-20T23:22:45.341Z,89.30
2019-04-20T23:25:11.308Z,90.00
2019-04-20T23:27:41.670Z,88.20
2019-04-20T23:30:19.423Z,88.70
2019-04-20T23:32:42.127Z,89.30
2019-04-20T23:35:15.041Z,87.70
2019-04-20T23:37:43.652Z,88.70
2019-04-20T23:40:14.869Z,88.90
2019-04-20T23:42:45.954Z,89.50
2019-04-20T23:45:38.862Z,90.30
2019-04-20T23:48:06.758Z,90.30
2019-04-20T23:50:50.456Z,89.70
2019-04-20T23:53:24.682Z,90.30
2019-04-20T23:55:36.938Z,90.90
2019-04-20T23:58:07.449Z,90.80
